CMB811 Details

Departure: Daniel K Inouye International Airport (PHNL)
Arrival: Bucholz AAF Airport (PKWA) at N/A
Route: OPIHI2 CHOKO R584 MCFLY R584 MAZZA 1000N/17300E NDJ
Notes: USTRANSCOM CONTRACT FLIGHT | LIMITED FUEL AVBL TO NON-DOD ACFT


Current Weather Information
PHNL 191653Z 00000KT 10SM FEW025 25/19 A2997 RMK AO2 SLP147 T02500194
PKWA 191700Z AUTO 00000KT 10SM CLR 28/25 A2975 RMK AO2 LTG DSNT N AND NW T02780247